sensor_id;sensor_type;location;lat;lon;timestamp;P1;durP1;ratioP1;P2;durP2;ratioP2
4575;SDS011;2300;51.874;8.430;2023-11-19T00:00:03;4.37;;;2.83;;
4575;SDS011;2300;51.874;8.430;2023-11-19T00:02:31;3.13;;;2.37;;
4575;SDS011;2300;51.874;8.430;2023-11-19T00:04:58;3.93;;;2.77;;
4575;SDS011;2300;51.874;8.430;2023-11-19T00:07:27;3.73;;;2.80;;
4575;SDS011;2300;51.874;8.430;2023-11-19T00:09:53;5.10;;;2.70;;
4575;SDS011;2300;51.874;8.430;2023-11-19T00:12:20;3.37;;;2.70;;
4575;SDS011;2300;51.874;8.430;2023-11-19T00:14:47;4.20;;;3.17;;
4575;SDS011;2300;51.874;8.430;2023-11-19T00:17:14;5.83;;;3.30;;
4575;SDS011;2300;51.874;8.430;2023-11-19T00:19:41;3.63;;;3.00;;
4575;SDS011;2300;51.874;8.430;2023-11-19T00:22:08;3.50;;;2.73;;
4575;SDS011;2300;51.874;8.430;2023-11-19T00:24:36;3.63;;;2.93;;
4575;SDS011;2300;51.874;8.430;2023-11-19T00:27:02;4.50;;;2.80;;
4575;SDS011;2300;51.874;8.430;2023-11-19T00:29:30;3.67;;;3.00;;
4575;SDS011;2300;51.874;8.430;2023-11-19T00:32:01;3.70;;;3.00;;
4575;SDS011;2300;51.874;8.430;2023-11-19T00:34:28;4.67;;;3.00;;
4575;SDS011;2300;51.874;8.430;2023-11-19T00:36:54;4.53;;;3.17;;
4575;SDS011;2300;51.874;8.430;2023-11-19T00:39:21;4.43;;;3.13;;
4575;SDS011;2300;51.874;8.430;2023-11-19T00:41:49;4.33;;;2.77;;
4575;SDS011;2300;51.874;8.430;2023-11-19T00:44:17;3.07;;;2.50;;
4575;SDS011;2300;51.874;8.430;2023-11-19T00:46:44;5.63;;;2.60;;
4575;SDS011;2300;51.874;8.430;2023-11-19T00:49:11;4.10;;;2.67;;
4575;SDS011;2300;51.874;8.430;2023-11-19T00:51:38;4.20;;;2.57;;
4575;SDS011;2300;51.874;8.430;2023-11-19T00:54:04;2.47;;;2.00;;
4575;SDS011;2300;51.874;8.430;2023-11-19T00:56:31;2.57;;;2.13;;
4575;SDS011;2300;51.874;8.430;2023-11-19T00:58:59;2.63;;;2.23;;
4575;SDS011;2300;51.874;8.430;2023-11-19T01:01:26;2.70;;;2.20;;
4575;SDS011;2300;51.874;8.430;2023-11-19T01:03:52;5.03;;;2.77;;
4575;SDS011;2300;51.874;8.430;2023-11-19T01:06:28;4.00;;;2.80;;
4575;SDS011;2300;51.874;8.430;2023-11-19T01:08:56;3.07;;;2.67;;
4575;SDS011;2300;51.874;8.430;2023-11-19T01:11:23;5.87;;;3.27;;
4575;SDS011;2300;51.874;8.430;2023-11-19T01:13:51;5.10;;;3.27;;
4575;SDS011;2300;51.874;8.430;2023-11-19T01:16:20;4.67;;;3.37;;
4575;SDS011;2300;51.874;8.430;2023-11-19T01:18:47;4.87;;;3.40;;
4575;SDS011;2300;51.874;8.430;2023-11-19T01:21:14;5.50;;;3.27;;
4575;SDS011;2300;51.874;8.430;2023-11-19T01:23:42;5.47;;;3.67;;
4575;SDS011;2300;51.874;8.430;2023-11-19T01:26:09;5.23;;;3.37;;
4575;SDS011;2300;51.874;8.430;2023-11-19T01:28:37;4.53;;;3.23;;
4575;SDS011;2300;51.874;8.430;2023-11-19T01:31:09;5.10;;;3.40;;
4575;SDS011;2300;51.874;8.430;2023-11-19T01:33:39;4.43;;;3.60;;
4575;SDS011;2300;51.874;8.430;2023-11-19T01:36:06;5.60;;;3.47;;
4575;SDS011;2300;51.874;8.430;2023-11-19T01:38:34;4.97;;;3.37;;
4575;SDS011;2300;51.874;8.430;2023-11-19T01:41:01;5.77;;;3.23;;
4575;SDS011;2300;51.874;8.430;2023-11-19T01:43:33;3.93;;;3.40;;
4575;SDS011;2300;51.874;8.430;2023-11-19T01:46:01;4.10;;;3.30;;
4575;SDS011;2300;51.874;8.430;2023-11-19T01:48:28;4.13;;;3.70;;
4575;SDS011;2300;51.874;8.430;2023-11-19T01:50:57;4.17;;;3.30;;
4575;SDS011;2300;51.874;8.430;2023-11-19T01:53:26;4.20;;;3.10;;
4575;SDS011;2300;51.874;8.430;2023-11-19T01:55:54;4.43;;;3.43;;
4575;SDS011;2300;51.874;8.430;2023-11-19T01:58:22;6.53;;;3.80;;
4575;SDS011;2300;51.874;8.430;2023-11-19T02:00:49;4.87;;;3.57;;
4575;SDS011;2300;51.874;8.430;2023-11-19T02:03:16;5.70;;;3.70;;
4575;SDS011;2300;51.874;8.430;2023-11-19T02:05:44;5.00;;;3.70;;
4575;SDS011;2300;51.874;8.430;2023-11-19T02:08:13;5.50;;;3.00;;
4575;SDS011;2300;51.874;8.430;2023-11-19T02:10:41;4.73;;;3.37;;
4575;SDS011;2300;51.874;8.430;2023-11-19T02:13:10;5.27;;;3.53;;
4575;SDS011;2300;51.874;8.430;2023-11-19T02:15:39;6.20;;;3.37;;
4575;SDS011;2300;51.874;8.430;2023-11-19T02:18:22;4.30;;;3.27;;
4575;SDS011;2300;51.874;8.430;2023-11-19T02:20:54;4.30;;;3.27;;
4575;SDS011;2300;51.874;8.430;2023-11-19T02:23:22;4.67;;;3.83;;
4575;SDS011;2300;51.874;8.430;2023-11-19T02:25:54;4.23;;;3.33;;
4575;SDS011;2300;51.874;8.430;2023-11-19T02:31:02;5.13;;;4.47;;
4575;SDS011;2300;51.874;8.430;2023-11-19T02:33:29;6.00;;;5.10;;
4575;SDS011;2300;51.874;8.430;2023-11-19T02:35:56;6.77;;;5.53;;
4575;SDS011;2300;51.874;8.430;2023-11-19T02:38:24;6.40;;;5.23;;
4575;SDS011;2300;51.874;8.430;2023-11-19T02:40:51;8.80;;;5.97;;
4575;SDS011;2300;51.874;8.430;2023-11-19T02:43:19;10.40;;;6.70;;
4575;SDS011;2300;51.874;8.430;2023-11-19T02:45:47;7.77;;;6.17;;
4575;SDS011;2300;51.874;8.430;2023-11-19T02:48:14;8.73;;;6.67;;
4575;SDS011;2300;51.874;8.430;2023-11-19T02:50:41;9.57;;;6.67;;
4575;SDS011;2300;51.874;8.430;2023-11-19T02:53:08;8.90;;;7.47;;
4575;SDS011;2300;51.874;8.430;2023-11-19T02:55:35;9.80;;;7.57;;
4575;SDS011;2300;51.874;8.430;2023-11-19T02:58:03;11.97;;;8.67;;
4575;SDS011;2300;51.874;8.430;2023-11-19T03:00:34;11.10;;;8.33;;
4575;SDS011;2300;51.874;8.430;2023-11-19T03:03:04;11.83;;;8.67;;
4575;SDS011;2300;51.874;8.430;2023-11-19T03:05:42;11.17;;;9.63;;
4575;SDS011;2300;51.874;8.430;2023-11-19T03:08:09;13.13;;;9.67;;
4575;SDS011;2300;51.874;8.430;2023-11-19T03:10:36;12.20;;;9.63;;
4575;SDS011;2300;51.874;8.430;2023-11-19T03:13:03;14.43;;;10.93;;
4575;SDS011;2300;51.874;8.430;2023-11-19T03:15:30;13.30;;;11.90;;
4575;SDS011;2300;51.874;8.430;2023-11-19T03:17:57;13.77;;;11.47;;
4575;SDS011;2300;51.874;8.430;2023-11-19T03:20:25;15.80;;;12.70;;
4575;SDS011;2300;51.874;8.430;2023-11-19T03:22:54;15.00;;;12.40;;
4575;SDS011;2300;51.874;8.430;2023-11-19T03:25:22;17.50;;;12.37;;
4575;SDS011;2300;51.874;8.430;2023-11-19T03:27:52;15.27;;;12.63;;
4575;SDS011;2300;51.874;8.430;2023-11-19T03:30:18;15.23;;;13.63;;
4575;SDS011;2300;51.874;8.430;2023-11-19T03:32:46;15.27;;;13.47;;
4575;SDS011;2300;51.874;8.430;2023-11-19T03:35:12;16.83;;;14.13;;
4575;SDS011;2300;51.874;8.430;2023-11-19T03:37:41;14.10;;;12.70;;
4575;SDS011;2300;51.874;8.430;2023-11-19T03:40:11;16.10;;;14.40;;
4575;SDS011;2300;51.874;8.430;2023-11-19T03:42:38;14.80;;;13.30;;
4575;SDS011;2300;51.874;8.430;2023-11-19T03:45:05;16.47;;;13.67;;
4575;SDS011;2300;51.874;8.430;2023-11-19T03:47:33;16.07;;;13.17;;
4575;SDS011;2300;51.874;8.430;2023-11-19T03:50:00;17.73;;;13.13;;
4575;SDS011;2300;51.874;8.430;2023-11-19T03:52:29;15.23;;;12.37;;
4575;SDS011;2300;51.874;8.430;2023-11-19T03:54:56;14.50;;;12.05;;
4575;SDS011;2300;51.874;8.430;2023-11-19T03:57:24;16.90;;;12.00;;
4575;SDS011;2300;51.874;8.430;2023-11-19T03:59:51;14.00;;;12.03;;
4575;SDS011;2300;51.874;8.430;2023-11-19T04:02:17;13.80;;;11.37;;
4575;SDS011;2300;51.874;8.430;2023-11-19T04:04:44;13.63;;;11.23;;
4575;SDS011;2300;51.874;8.430;2023-11-19T04:07:10;13.00;;;11.30;;
4575;SDS011;2300;51.874;8.430;2023-11-19T04:09:37;13.63;;;11.40;;
4575;SDS011;2300;51.874;8.430;2023-11-19T04:12:05;16.50;;;11.73;;
4575;SDS011;2300;51.874;8.430;2023-11-19T04:14:33;14.83;;;10.90;;
4575;SDS011;2300;51.874;8.430;2023-11-19T04:17:00;12.03;;;10.47;;
4575;SDS011;2300;51.874;8.430;2023-11-19T04:19:26;17.27;;;10.90;;
4575;SDS011;2300;51.874;8.430;2023-11-19T04:21:54;13.33;;;10.97;;
4575;SDS011;2300;51.874;8.430;2023-11-19T04:24:20;15.63;;;9.77;;
4575;SDS011;2300;51.874;8.430;2023-11-19T04:26:48;17.97;;;10.17;;
4575;SDS011;2300;51.874;8.430;2023-11-19T04:29:16;13.20;;;9.43;;
4575;SDS011;2300;51.874;8.430;2023-11-19T04:31:44;19.80;;;10.20;;
4575;SDS011;2300;51.874;8.430;2023-11-19T04:34:11;15.23;;;10.00;;
4575;SDS011;2300;51.874;8.430;2023-11-19T04:36:37;18.00;;;10.00;;
4575;SDS011;2300;51.874;8.430;2023-11-19T04:39:04;17.10;;;9.97;;
4575;SDS011;2300;51.874;8.430;2023-11-19T04:41:34;23.60;;;10.00;;
4575;SDS011;2300;51.874;8.430;2023-11-19T04:44:01;20.77;;;9.33;;
4575;SDS011;2300;51.874;8.430;2023-11-19T04:46:29;20.83;;;9.47;;
4575;SDS011;2300;51.874;8.430;2023-11-19T04:48:55;21.73;;;9.40;;
4575;SDS011;2300;51.874;8.430;2023-11-19T04:51:22;21.30;;;8.63;;
4575;SDS011;2300;51.874;8.430;2023-11-19T04:53:49;21.53;;;9.13;;
4575;SDS011;2300;51.874;8.430;2023-11-19T04:56:16;20.67;;;8.63;;
4575;SDS011;2300;51.874;8.430;2023-11-19T04:58:45;21.20;;;8.00;;
4575;SDS011;2300;51.874;8.430;2023-11-19T05:01:13;19.70;;;8.30;;
4575;SDS011;2300;51.874;8.430;2023-11-19T05:03:43;19.87;;;7.83;;
4575;SDS011;2300;51.874;8.430;2023-11-19T05:06:10;19.30;;;7.70;;
4575;SDS011;2300;51.874;8.430;2023-11-19T05:08:38;20.40;;;7.20;;
4575;SDS011;2300;51.874;8.430;2023-11-19T05:11:05;19.13;;;6.90;;
4575;SDS011;2300;51.874;8.430;2023-11-19T05:13:32;21.47;;;7.20;;
4575;SDS011;2300;51.874;8.430;2023-11-19T05:15:59;22.17;;;7.13;;
4575;SDS011;2300;51.874;8.430;2023-11-19T05:18:27;16.37;;;6.07;;
4575;SDS011;2300;51.874;8.430;2023-11-19T05:20:55;24.30;;;6.60;;
4575;SDS011;2300;51.874;8.430;2023-11-19T05:23:21;20.30;;;6.87;;
4575;SDS011;2300;51.874;8.430;2023-11-19T05:25:48;25.13;;;7.33;;
4575;SDS011;2300;51.874;8.430;2023-11-19T05:28:14;16.47;;;6.13;;
4575;SDS011;2300;51.874;8.430;2023-11-19T05:30:41;18.57;;;6.30;;
4575;SDS011;2300;51.874;8.430;2023-11-19T05:33:08;20.20;;;6.53;;
4575;SDS011;2300;51.874;8.430;2023-11-19T05:35:37;20.50;;;6.87;;
4575;SDS011;2300;51.874;8.430;2023-11-19T05:38:05;15.80;;;7.13;;
4575;SDS011;2300;51.874;8.430;2023-11-19T05:40:31;18.97;;;8.10;;
4575;SDS011;2300;51.874;8.430;2023-11-19T05:42:59;20.97;;;8.20;;
4575;SDS011;2300;51.874;8.430;2023-11-19T05:45:26;17.83;;;7.37;;
4575;SDS011;2300;51.874;8.430;2023-11-19T05:47:53;20.37;;;7.33;;
4575;SDS011;2300;51.874;8.430;2023-11-19T05:50:19;23.67;;;7.10;;
4575;SDS011;2300;51.874;8.430;2023-11-19T05:52:46;23.50;;;6.60;;
4575;SDS011;2300;51.874;8.430;2023-11-19T05:55:13;21.37;;;6.10;;
4575;SDS011;2300;51.874;8.430;2023-11-19T05:57:39;26.10;;;6.47;;
4575;SDS011;2300;51.874;8.430;2023-11-19T06:00:07;19.90;;;5.90;;
4575;SDS011;2300;51.874;8.430;2023-11-19T06:02:35;31.23;;;6.90;;
4575;SDS011;2300;51.874;8.430;2023-11-19T06:05:03;22.93;;;5.70;;
4575;SDS011;2300;51.874;8.430;2023-11-19T06:07:31;20.97;;;5.43;;
4575;SDS011;2300;51.874;8.430;2023-11-19T06:09:58;24.33;;;6.53;;
4575;SDS011;2300;51.874;8.430;2023-11-19T06:12:26;25.80;;;5.97;;
4575;SDS011;2300;51.874;8.430;2023-11-19T06:14:52;27.43;;;6.10;;
4575;SDS011;2300;51.874;8.430;2023-11-19T06:17:19;29.93;;;7.53;;
4575;SDS011;2300;51.874;8.430;2023-11-19T06:19:46;25.90;;;6.37;;
4575;SDS011;2300;51.874;8.430;2023-11-19T06:22:12;22.77;;;5.60;;
4575;SDS011;2300;51.874;8.430;2023-11-19T06:24:39;32.83;;;6.17;;
4575;SDS011;2300;51.874;8.430;2023-11-19T06:27:06;29.40;;;6.03;;
4575;SDS011;2300;51.874;8.430;2023-11-19T06:29:35;25.67;;;5.70;;
4575;SDS011;2300;51.874;8.430;2023-11-19T06:32:01;26.30;;;5.57;;
4575;SDS011;2300;51.874;8.430;2023-11-19T06:34:28;27.47;;;6.43;;
4575;SDS011;2300;51.874;8.430;2023-11-19T06:36:55;39.23;;;6.00;;
4575;SDS011;2300;51.874;8.430;2023-11-19T06:39:21;25.67;;;6.53;;
4575;SDS011;2300;51.874;8.430;2023-11-19T06:41:48;25.93;;;5.37;;
4575;SDS011;2300;51.874;8.430;2023-11-19T06:44:15;29.03;;;5.73;;
4575;SDS011;2300;51.874;8.430;2023-11-19T06:46:44;28.77;;;5.83;;
4575;SDS011;2300;51.874;8.430;2023-11-19T06:49:11;24.03;;;4.97;;
4575;SDS011;2300;51.874;8.430;2023-11-19T06:51:41;28.23;;;5.93;;
4575;SDS011;2300;51.874;8.430;2023-11-19T06:54:11;24.83;;;4.93;;
4575;SDS011;2300;51.874;8.430;2023-11-19T06:56:43;37.27;;;5.90;;
4575;SDS011;2300;51.874;8.430;2023-11-19T06:59:09;26.93;;;5.70;;
4575;SDS011;2300;51.874;8.430;2023-11-19T07:01:35;25.63;;;5.10;;
4575;SDS011;2300;51.874;8.430;2023-11-19T07:04:03;29.63;;;5.23;;
4575;SDS011;2300;51.874;8.430;2023-11-19T07:06:34;28.13;;;4.83;;
4575;SDS011;2300;51.874;8.430;2023-11-19T07:09:01;30.63;;;5.10;;
4575;SDS011;2300;51.874;8.430;2023-11-19T07:11:34;23.83;;;5.07;;
4575;SDS011;2300;51.874;8.430;2023-11-19T07:14:01;30.20;;;5.20;;
4575;SDS011;2300;51.874;8.430;2023-11-19T07:16:28;29.43;;;4.93;;
4575;SDS011;2300;51.874;8.430;2023-11-19T07:18:55;20.90;;;4.87;;
4575;SDS011;2300;51.874;8.430;2023-11-19T07:21:23;26.03;;;5.53;;
4575;SDS011;2300;51.874;8.430;2023-11-19T07:23:49;27.90;;;5.37;;
4575;SDS011;2300;51.874;8.430;2023-11-19T07:26:17;29.70;;;5.63;;
4575;SDS011;2300;51.874;8.430;2023-11-19T07:28:43;30.83;;;6.03;;
4575;SDS011;2300;51.874;8.430;2023-11-19T07:31:10;32.57;;;6.43;;
4575;SDS011;2300;51.874;8.430;2023-11-19T07:33:39;31.80;;;5.90;;
4575;SDS011;2300;51.874;8.430;2023-11-19T07:36:07;26.63;;;4.53;;
4575;SDS011;2300;51.874;8.430;2023-11-19T07:38:36;29.37;;;5.73;;
4575;SDS011;2300;51.874;8.430;2023-11-19T07:41:05;31.37;;;5.33;;
4575;SDS011;2300;51.874;8.430;2023-11-19T07:43:34;24.90;;;4.63;;
4575;SDS011;2300;51.874;8.430;2023-11-19T07:46:00;30.67;;;6.07;;
4575;SDS011;2300;51.874;8.430;2023-11-19T07:48:28;26.20;;;5.07;;
4575;SDS011;2300;51.874;8.430;2023-11-19T07:50:55;28.67;;;5.30;;
4575;SDS011;2300;51.874;8.430;2023-11-19T07:53:22;26.87;;;4.87;;
4575;SDS011;2300;51.874;8.430;2023-11-19T07:55:49;23.47;;;5.13;;
4575;SDS011;2300;51.874;8.430;2023-11-19T07:58:16;40.83;;;5.53;;
4575;SDS011;2300;51.874;8.430;2023-11-19T08:00:43;28.33;;;6.30;;
4575;SDS011;2300;51.874;8.430;2023-11-19T08:03:09;35.27;;;6.30;;
4575;SDS011;2300;51.874;8.430;2023-11-19T08:05:36;30.60;;;6.00;;
4575;SDS011;2300;51.874;8.430;2023-11-19T08:08:04;24.87;;;5.60;;
4575;SDS011;2300;51.874;8.430;2023-11-19T08:10:31;32.00;;;6.77;;
4575;SDS011;2300;51.874;8.430;2023-11-19T08:13:00;25.63;;;5.90;;
4575;SDS011;2300;51.874;8.430;2023-11-19T08:15:26;30.47;;;5.37;;
4575;SDS011;2300;51.874;8.430;2023-11-19T08:17:53;27.90;;;6.10;;
4575;SDS011;2300;51.874;8.430;2023-11-19T08:20:21;27.40;;;5.83;;
4575;SDS011;2300;51.874;8.430;2023-11-19T08:22:47;31.63;;;6.00;;
4575;SDS011;2300;51.874;8.430;2023-11-19T08:25:14;26.07;;;5.87;;
4575;SDS011;2300;51.874;8.430;2023-11-19T08:27:41;38.70;;;6.07;;
4575;SDS011;2300;51.874;8.430;2023-11-19T08:30:10;28.50;;;5.60;;
4575;SDS011;2300;51.874;8.430;2023-11-19T08:32:37;33.63;;;5.70;;
4575;SDS011;2300;51.874;8.430;2023-11-19T08:35:04;31.40;;;5.73;;
4575;SDS011;2300;51.874;8.430;2023-11-19T08:37:31;30.50;;;6.43;;
4575;SDS011;2300;51.874;8.430;2023-11-19T08:39:58;27.50;;;5.63;;
4575;SDS011;2300;51.874;8.430;2023-11-19T08:42:29;32.63;;;5.53;;
4575;SDS011;2300;51.874;8.430;2023-11-19T08:44:56;26.53;;;5.63;;
4575;SDS011;2300;51.874;8.430;2023-11-19T08:47:23;29.73;;;5.87;;
4575;SDS011;2300;51.874;8.430;2023-11-19T08:49:50;33.33;;;5.67;;
4575;SDS011;2300;51.874;8.430;2023-11-19T08:52:17;33.63;;;7.00;;
4575;SDS011;2300;51.874;8.430;2023-11-19T08:54:44;30.80;;;6.40;;
4575;SDS011;2300;51.874;8.430;2023-11-19T08:57:11;23.93;;;5.10;;
4575;SDS011;2300;51.874;8.430;2023-11-19T08:59:37;34.50;;;5.60;;
4575;SDS011;2300;51.874;8.430;2023-11-19T09:02:05;30.20;;;5.83;;
4575;SDS011;2300;51.874;8.430;2023-11-19T09:04:33;29.73;;;5.63;;
4575;SDS011;2300;51.874;8.430;2023-11-19T09:07:01;30.93;;;5.93;;
4575;SDS011;2300;51.874;8.430;2023-11-19T09:09:28;27.07;;;5.47;;
4575;SDS011;2300;51.874;8.430;2023-11-19T09:11:54;25.83;;;5.50;;
4575;SDS011;2300;51.874;8.430;2023-11-19T09:14:21;26.00;;;5.10;;
4575;SDS011;2300;51.874;8.430;2023-11-19T09:16:52;33.53;;;6.53;;
4575;SDS011;2300;51.874;8.430;2023-11-19T09:19:18;29.20;;;5.27;;
4575;SDS011;2300;51.874;8.430;2023-11-19T09:21:47;34.27;;;6.07;;
4575;SDS011;2300;51.874;8.430;2023-11-19T09:24:14;31.13;;;5.47;;
4575;SDS011;2300;51.874;8.430;2023-11-19T09:26:40;33.07;;;6.10;;
4575;SDS011;2300;51.874;8.430;2023-11-19T09:29:07;33.33;;;6.23;;
4575;SDS011;2300;51.874;8.430;2023-11-19T09:31:34;29.40;;;6.17;;
4575;SDS011;2300;51.874;8.430;2023-11-19T09:34:01;25.67;;;5.17;;
4575;SDS011;2300;51.874;8.430;2023-11-19T09:36:27;22.63;;;5.03;;
4575;SDS011;2300;51.874;8.430;2023-11-19T09:38:55;27.63;;;5.50;;
4575;SDS011;2300;51.874;8.430;2023-11-19T09:41:22;38.37;;;6.50;;
4575;SDS011;2300;51.874;8.430;2023-11-19T09:43:50;24.07;;;5.17;;
4575;SDS011;2300;51.874;8.430;2023-11-19T09:46:17;29.10;;;5.90;;
4575;SDS011;2300;51.874;8.430;2023-11-19T09:48:45;28.43;;;6.20;;
4575;SDS011;2300;51.874;8.430;2023-11-19T09:51:13;30.37;;;5.70;;
4575;SDS011;2300;51.874;8.430;2023-11-19T09:53:40;26.83;;;6.00;;
4575;SDS011;2300;51.874;8.430;2023-11-19T09:56:07;28.50;;;5.57;;
4575;SDS011;2300;51.874;8.430;2023-11-19T09:58:34;25.57;;;5.77;;
4575;SDS011;2300;51.874;8.430;2023-11-19T10:01:01;29.77;;;5.77;;
4575;SDS011;2300;51.874;8.430;2023-11-19T10:03:32;34.57;;;5.93;;
4575;SDS011;2300;51.874;8.430;2023-11-19T10:06:00;29.60;;;6.57;;
4575;SDS011;2300;51.874;8.430;2023-11-19T10:08:30;26.80;;;5.22;;
4575;SDS011;2300;51.874;8.430;2023-11-19T10:10:59;31.30;;;5.50;;
4575;SDS011;2300;51.874;8.430;2023-11-19T10:13:27;29.50;;;5.27;;
4575;SDS011;2300;51.874;8.430;2023-11-19T10:15:54;36.33;;;5.70;;
4575;SDS011;2300;51.874;8.430;2023-11-19T10:18:23;31.83;;;5.00;;
4575;SDS011;2300;51.874;8.430;2023-11-19T10:20:50;36.23;;;6.03;;
4575;SDS011;2300;51.874;8.430;2023-11-19T10:23:18;31.57;;;5.40;;
4575;SDS011;2300;51.874;8.430;2023-11-19T10:25:45;27.87;;;5.23;;
4575;SDS011;2300;51.874;8.430;2023-11-19T10:28:12;32.20;;;5.70;;
4575;SDS011;2300;51.874;8.430;2023-11-19T10:30:43;26.97;;;4.80;;
4575;SDS011;2300;51.874;8.430;2023-11-19T10:33:10;32.27;;;6.17;;
4575;SDS011;2300;51.874;8.430;2023-11-19T10:38:26;27.67;;;5.10;;
4575;SDS011;2300;51.874;8.430;2023-11-19T10:40:53;35.83;;;5.80;;
4575;SDS011;2300;51.874;8.430;2023-11-19T10:43:22;30.33;;;5.67;;
4575;SDS011;2300;51.874;8.430;2023-11-19T10:45:51;28.73;;;4.83;;
4575;SDS011;2300;51.874;8.430;2023-11-19T10:48:18;33.20;;;5.77;;
4575;SDS011;2300;51.874;8.430;2023-11-19T10:50:46;28.63;;;5.60;;
4575;SDS011;2300;51.874;8.430;2023-11-19T10:53:19;26.27;;;5.10;;
4575;SDS011;2300;51.874;8.430;2023-11-19T10:55:47;33.38;;;5.47;;
4575;SDS011;2300;51.874;8.430;2023-11-19T10:58:15;26.97;;;4.83;;
4575;SDS011;2300;51.874;8.430;2023-11-19T11:00:43;32.70;;;6.20;;
4575;SDS011;2300;51.874;8.430;2023-11-19T11:03:16;26.73;;;4.63;;
4575;SDS011;2300;51.874;8.430;2023-11-19T11:05:46;25.23;;;5.23;;
4575;SDS011;2300;51.874;8.430;2023-11-19T11:08:14;32.13;;;5.73;;
4575;SDS011;2300;51.874;8.430;2023-11-19T11:10:43;30.03;;;5.50;;
4575;SDS011;2300;51.874;8.430;2023-11-19T11:13:11;35.30;;;5.20;;
4575;SDS011;2300;51.874;8.430;2023-11-19T11:15:39;36.80;;;6.27;;
4575;SDS011;2300;51.874;8.430;2023-11-19T11:18:08;32.90;;;5.23;;
4575;SDS011;2300;51.874;8.430;2023-11-19T11:20:36;33.28;;;6.00;;
4575;SDS011;2300;51.874;8.430;2023-11-19T11:23:13;30.03;;;5.30;;
4575;SDS011;2300;51.874;8.430;2023-11-19T11:26:00;27.23;;;5.33;;
4575;SDS011;2300;51.874;8.430;2023-11-19T11:28:43;28.80;;;5.25;;
4575;SDS011;2300;51.874;8.430;2023-11-19T11:31:18;34.50;;;5.83;;
4575;SDS011;2300;51.874;8.430;2023-11-19T11:33:59;33.10;;;6.20;;
4575;SDS011;2300;51.874;8.430;2023-11-19T11:36:43;35.27;;;5.70;;
4575;SDS011;2300;51.874;8.430;2023-11-19T11:39:17;30.40;;;5.77;;
4575;SDS011;2300;51.874;8.430;2023-11-19T11:41:55;31.80;;;6.07;;
4575;SDS011;2300;51.874;8.430;2023-11-19T11:45:02;42.03;;;11.10;;
4575;SDS011;2300;51.874;8.430;2023-11-19T11:50:51;46.43;;;20.10;;
4575;SDS011;2300;51.874;8.430;2023-11-19T11:53:20;31.93;;;7.67;;
4575;SDS011;2300;51.874;8.430;2023-11-19T11:55:52;30.50;;;6.05;;
4575;SDS011;2300;51.874;8.430;2023-11-19T11:58:26;32.17;;;5.40;;
4575;SDS011;2300;51.874;8.430;2023-11-19T12:00:57;29.83;;;5.60;;
4575;SDS011;2300;51.874;8.430;2023-11-19T12:03:27;27.07;;;5.40;;
4575;SDS011;2300;51.874;8.430;2023-11-19T12:05:55;26.30;;;5.57;;
4575;SDS011;2300;51.874;8.430;2023-11-19T12:08:27;31.70;;;5.67;;
4575;SDS011;2300;51.874;8.430;2023-11-19T12:10:55;28.83;;;4.82;;
4575;SDS011;2300;51.874;8.430;2023-11-19T12:13:42;30.20;;;5.23;;
4575;SDS011;2300;51.874;8.430;2023-11-19T12:16:13;27.37;;;5.20;;
4575;SDS011;2300;51.874;8.430;2023-11-19T12:18:41;29.67;;;5.47;;
4575;SDS011;2300;51.874;8.430;2023-11-19T12:21:07;28.25;;;5.30;;
4575;SDS011;2300;51.874;8.430;2023-11-19T12:23:35;27.53;;;4.47;;
4575;SDS011;2300;51.874;8.430;2023-11-19T12:26:20;35.13;;;5.13;;
4575;SDS011;2300;51.874;8.430;2023-11-19T12:29:00;32.93;;;5.40;;
4575;SDS011;2300;51.874;8.430;2023-11-19T12:31:31;26.15;;;4.80;;
4575;SDS011;2300;51.874;8.430;2023-11-19T12:34:10;32.83;;;5.13;;
4575;SDS011;2300;51.874;8.430;2023-11-19T12:36:38;29.27;;;4.97;;
4575;SDS011;2300;51.874;8.430;2023-11-19T12:39:06;28.55;;;5.13;;
4575;SDS011;2300;51.874;8.430;2023-11-19T12:41:48;36.07;;;6.33;;
4575;SDS011;2300;51.874;8.430;2023-11-19T12:44:24;30.37;;;5.40;;
4575;SDS011;2300;51.874;8.430;2023-11-19T12:49:36;28.43;;;5.90;;
4575;SDS011;2300;51.874;8.430;2023-11-19T12:52:11;23.52;;;4.90;;
4575;SDS011;2300;51.874;8.430;2023-11-19T12:54:40;28.52;;;4.82;;
4575;SDS011;2300;51.874;8.430;2023-11-19T12:57:08;30.80;;;4.97;;
4575;SDS011;2300;51.874;8.430;2023-11-19T12:59:37;29.00;;;5.03;;
4575;SDS011;2300;51.874;8.430;2023-11-19T13:02:03;25.07;;;4.80;;
4575;SDS011;2300;51.874;8.430;2023-11-19T13:04:31;26.17;;;4.93;;
4575;SDS011;2300;51.874;8.430;2023-11-19T13:06:58;29.63;;;5.13;;
4575;SDS011;2300;51.874;8.430;2023-11-19T13:09:25;25.47;;;5.13;;
4575;SDS011;2300;51.874;8.430;2023-11-19T13:11:54;30.47;;;6.17;;
4575;SDS011;2300;51.874;8.430;2023-11-19T13:14:21;26.35;;;5.53;;
4575;SDS011;2300;51.874;8.430;2023-11-19T13:16:50;24.63;;;5.30;;
4575;SDS011;2300;51.874;8.430;2023-11-19T13:19:18;29.33;;;5.50;;
4575;SDS011;2300;51.874;8.430;2023-11-19T13:21:48;30.73;;;5.30;;
4575;SDS011;2300;51.874;8.430;2023-11-19T13:24:15;26.03;;;5.00;;
4575;SDS011;2300;51.874;8.430;2023-11-19T13:26:43;25.92;;;4.78;;
4575;SDS011;2300;51.874;8.430;2023-11-19T13:29:11;24.43;;;5.07;;
4575;SDS011;2300;51.874;8.430;2023-11-19T13:31:38;20.67;;;5.27;;
4575;SDS011;2300;51.874;8.430;2023-11-19T13:34:06;28.57;;;5.10;;
4575;SDS011;2300;51.874;8.430;2023-11-19T13:36:34;29.40;;;5.60;;
4575;SDS011;2300;51.874;8.430;2023-11-19T13:39:00;26.87;;;4.43;;
4575;SDS011;2300;51.874;8.430;2023-11-19T13:41:27;31.17;;;4.93;;
4575;SDS011;2300;51.874;8.430;2023-11-19T13:43:54;27.43;;;4.87;;
4575;SDS011;2300;51.874;8.430;2023-11-19T13:46:20;30.33;;;5.17;;
4575;SDS011;2300;51.874;8.430;2023-11-19T13:48:48;26.17;;;4.45;;
4575;SDS011;2300;51.874;8.430;2023-11-19T13:51:16;23.73;;;4.33;;
4575;SDS011;2300;51.874;8.430;2023-11-19T13:53:43;25.83;;;4.60;;
4575;SDS011;2300;51.874;8.430;2023-11-19T13:56:10;25.37;;;4.70;;
4575;SDS011;2300;51.874;8.430;2023-11-19T13:58:37;24.25;;;5.22;;
4575;SDS011;2300;51.874;8.430;2023-11-19T14:01:05;25.93;;;4.97;;
4575;SDS011;2300;51.874;8.430;2023-11-19T14:03:33;25.10;;;4.93;;
4575;SDS011;2300;51.874;8.430;2023-11-19T14:06:05;23.25;;;4.80;;
4575;SDS011;2300;51.874;8.430;2023-11-19T14:08:36;28.70;;;4.80;;
4575;SDS011;2300;51.874;8.430;2023-11-19T14:11:05;24.77;;;5.07;;
4575;SDS011;2300;51.874;8.430;2023-11-19T14:13:32;28.53;;;4.80;;
4575;SDS011;2300;51.874;8.430;2023-11-19T14:15:59;27.77;;;4.90;;
4575;SDS011;2300;51.874;8.430;2023-11-19T14:18:27;25.77;;;4.40;;
4575;SDS011;2300;51.874;8.430;2023-11-19T14:20:54;23.27;;;4.47;;
4575;SDS011;2300;51.874;8.430;2023-11-19T14:23:20;23.90;;;4.10;;
4575;SDS011;2300;51.874;8.430;2023-11-19T14:25:48;26.53;;;4.30;;
4575;SDS011;2300;51.874;8.430;2023-11-19T14:28:22;22.90;;;4.00;;
4575;SDS011;2300;51.874;8.430;2023-11-19T14:30:51;25.13;;;4.40;;
4575;SDS011;2300;51.874;8.430;2023-11-19T14:33:21;21.17;;;4.30;;
4575;SDS011;2300;51.874;8.430;2023-11-19T14:35:48;19.73;;;3.27;;
4575;SDS011;2300;51.874;8.430;2023-11-19T14:38:16;23.33;;;4.13;;
4575;SDS011;2300;51.874;8.430;2023-11-19T14:40:43;16.57;;;3.53;;
4575;SDS011;2300;51.874;8.430;2023-11-19T14:43:11;21.07;;;3.83;;
4575;SDS011;2300;51.874;8.430;2023-11-19T14:45:39;22.80;;;3.70;;
4575;SDS011;2300;51.874;8.430;2023-11-19T14:48:06;16.40;;;3.20;;
4575;SDS011;2300;51.874;8.430;2023-11-19T14:50:35;18.92;;;3.97;;
4575;SDS011;2300;51.874;8.430;2023-11-19T14:53:01;22.70;;;4.33;;
4575;SDS011;2300;51.874;8.430;2023-11-19T14:55:28;17.60;;;3.47;;
4575;SDS011;2300;51.874;8.430;2023-11-19T14:57:55;21.23;;;3.67;;
4575;SDS011;2300;51.874;8.430;2023-11-19T15:00:23;24.47;;;3.83;;
4575;SDS011;2300;51.874;8.430;2023-11-19T15:02:50;20.43;;;3.43;;
4575;SDS011;2300;51.874;8.430;2023-11-19T15:05:17;21.27;;;4.07;;
4575;SDS011;2300;51.874;8.430;2023-11-19T15:07:44;22.60;;;4.27;;
4575;SDS011;2300;51.874;8.430;2023-11-19T15:10:12;23.07;;;3.73;;
4575;SDS011;2300;51.874;8.430;2023-11-19T15:12:39;19.93;;;4.23;;
4575;SDS011;2300;51.874;8.430;2023-11-19T15:15:07;19.70;;;3.60;;
4575;SDS011;2300;51.874;8.430;2023-11-19T15:17:36;20.83;;;3.83;;
4575;SDS011;2300;51.874;8.430;2023-11-19T15:20:04;19.60;;;4.13;;